Time;durP1;ratioP1;P1;durP2;ratioP2;P2;SDS_P1;SDS_P2;PMS_P1;PMS_P2;Temp;Humidity;BMP_temperature;BMP_pressure;BME280_temperature;BME280_humidity;BME280_pressure;Samples;Min_cycle;Max_cycle;Signal;HPM_P1;HPM_P2
2023/08/13 00:00:22;;;;;;;5.88;3.10;;;;;;;23.32;47.04;99969.75;5093667;28;20026;-41
2023/08/13 00:02:48;;;;;;;3.50;3.00;;;;;;;23.43;46.81;99974.81;5093730;28;20023;-44
2023/08/13 00:05:14;;;;;;;3.42;2.92;;;;;;;23.61;46.30;99975.25;5093966;28;20532;-44
2023/08/13 00:07:39;;;;;;;6.65;3.58;;;;;;;23.84;45.86;99968.28;5093964;28;20031;-42
2023/08/13 00:10:05;;;;;;;6.05;3.42;;;;;;;24.23;45.05;99975.47;5093907;28;20391;-43
2023/08/13 00:12:31;;;;;;;5.32;3.25;;;;;;;24.12;45.14;99969.34;5093568;28;20024;-42
2023/08/13 00:14:56;;;;;;;4.80;3.20;;;;;;;24.13;45.12;99968.25;5093713;28;20138;-42
2023/08/13 00:17:22;;;;;;;5.45;3.20;;;;;;;24.13;45.13;99967.44;5093458;28;20019;-42
2023/08/13 00:19:47;;;;;;;5.63;2.90;;;;;;;24.06;45.23;99961.53;5093485;28;20541;-42
2023/08/13 00:22:13;;;;;;;4.80;3.30;;;;;;;23.92;45.65;99958.69;5093742;28;20107;-43
2023/08/13 00:24:38;;;;;;;5.13;3.20;;;;;;;23.85;45.63;99961.72;5093515;28;20077;-43
2023/08/13 00:27:04;;;;;;;5.25;3.15;;;;;;;23.80;45.79;99962.59;5093220;28;20020;-43
2023/08/13 00:29:31;;;;;;;5.45;3.08;;;;;;;23.67;46.17;99963.22;5093169;28;20020;-45
2023/08/13 00:31:56;;;;;;;4.40;3.13;;;;;;;23.64;46.20;99969.22;5093065;28;20024;-43
2023/08/13 00:34:22;;;;;;;4.78;3.20;;;;;;;23.19;47.40;99963.09;5093457;28;20066;-44
2023/08/13 00:36:47;;;;;;;4.97;3.28;;;;;;;23.36;47.25;99966.22;5093389;28;20024;-43
2023/08/13 00:39:13;;;;;;;6.90;3.10;;;;;;;23.62;46.53;99966.00;5093076;28;20136;-43
2023/08/13 00:41:39;;;;;;;4.60;3.05;;;;;;;23.96;45.80;99965.97;5093190;28;20019;-42
2023/08/13 00:44:04;;;;;;;7.90;3.55;;;;;;;24.17;45.27;99963.84;5093107;28;20189;-42
2023/08/13 00:46:30;;;;;;;3.90;3.22;;;;;;;24.28;45.06;99961.03;5092912;28;20046;-44
2023/08/13 00:48:58;;;;;;;4.63;3.47;;;;;;;24.31;45.04;99953.13;5092143;28;20038;-43
2023/08/13 00:51:23;;;;;;;4.40;3.40;;;;;;;24.46;44.55;99962.16;5092816;28;20022;-45
2023/08/13 00:53:49;;;;;;;6.82;3.30;;;;;;;24.43;44.57;99960.03;5092679;28;20020;-42
2023/08/13 00:56:16;;;;;;;4.82;3.20;;;;;;;24.28;44.83;99961.84;5092727;28;20020;-43
2023/08/13 00:58:42;;;;;;;4.65;3.33;;;;;;;24.19;45.09;99974.44;5092801;28;20115;-41
2023/08/13 01:01:08;;;;;;;5.30;3.10;;;;;;;24.05;45.44;99968.88;5092590;28;20433;-41
2023/08/13 01:03:34;;;;;;;5.38;3.55;;;;;;;24.16;45.34;99966.84;5092838;28;20055;-42
2023/08/13 01:06:14;;;;;;;5.50;3.53;;;;;;;24.16;45.29;99964.97;5092469;28;20016;-43
2023/08/13 01:08:56;;;;;;;5.22;3.42;;;;;;;24.18;45.33;99968.19;5092375;28;20028;-43
2023/08/13 01:11:52;;;;;;;4.75;3.40;;;;;;;24.17;45.49;99961.13;5092497;28;20032;-41
2023/08/13 01:14:29;;;;;;;4.13;3.50;;;;;;;24.20;45.44;99971.44;5092632;28;20109;-42
2023/08/13 01:16:57;;;;;;;5.53;3.30;;;;;;;24.14;45.59;99977.19;5092204;28;20054;-43
2023/08/13 01:19:23;;;;;;;4.55;3.58;;;;;;;24.12;45.84;99973.97;5092334;28;20031;-41
2023/08/13 01:21:48;;;;;;;4.20;3.10;;;;;;;24.16;45.77;99975.84;5092438;28;20400;-41
2023/08/13 01:24:14;;;;;;;6.50;3.50;;;;;;;24.24;45.65;99977.13;5092127;28;20024;-42
2023/08/13 01:27:06;;;;;;;5.78;4.03;;;;;;;24.25;45.88;99977.91;5092319;28;20028;-41
2023/08/13 01:29:44;;;;;;;5.47;4.00;;;;;;;24.17;46.11;99980.16;5092366;28;20414;-42
2023/08/13 01:32:13;;;;;;;5.72;4.25;;;;;;;24.09;46.28;99980.00;5092115;28;20024;-43
2023/08/13 01:34:40;;;;;;;5.20;4.15;;;;;;;24.10;46.41;99982.41;5091812;28;20028;-42
2023/08/13 01:37:06;;;;;;;6.90;4.50;;;;;;;24.09;46.55;99980.00;5092010;28;20119;-42
2023/08/13 01:39:31;;;;;;;7.45;4.50;;;;;;;24.03;46.51;99978.41;5091823;28;20123;-43
2023/08/13 01:41:57;;;;;;;6.63;4.10;;;;;;;23.98;46.80;99979.28;5092135;28;20505;-43
2023/08/13 01:44:23;;;;;;;6.10;4.15;;;;;;;24.04;46.62;99977.31;5091611;28;20360;-42
2023/08/13 01:46:48;;;;;;;5.53;4.00;;;;;;;24.10;46.64;99976.16;5091900;28;20074;-43
2023/08/13 01:49:14;;;;;;;5.95;4.13;;;;;;;24.06;46.60;99980.56;5092303;28;20104;-41
2023/08/13 01:51:40;;;;;;;5.65;3.70;;;;;;;23.97;46.85;99983.06;5073424;28;20031;-42
2023/08/13 01:54:05;;;;;;;6.00;3.78;;;;;;;23.94;46.64;99972.81;5091795;28;20024;-42
2023/08/13 01:56:31;;;;;;;6.90;4.07;;;;;;;23.92;46.82;99986.66;5091746;28;20137;-42
2023/08/13 01:58:56;;;;;;;5.82;3.75;;;;;;;23.92;47.10;99977.72;5092163;28;20474;-43
2023/08/13 02:01:22;;;;;;;6.30;4.18;;;;;;;23.92;47.33;99991.31;5091868;28;20031;-41
2023/08/13 02:03:47;;;;;;;8.77;4.05;;;;;;;23.81;47.49;99991.38;5091707;28;20016;-42
2023/08/13 02:06:13;;;;;;;6.88;4.05;;;;;;;23.85;47.31;99990.81;5091530;28;20035;-41
2023/08/13 02:08:38;;;;;;;5.57;3.80;;;;;;;23.85;47.20;99986.19;5091397;28;20028;-41
2023/08/13 02:11:04;;;;;;;5.63;4.00;;;;;;;23.87;47.38;99988.63;5091458;28;20089;-43
2023/08/13 02:13:29;;;;;;;5.45;4.05;;;;;;;23.79;47.56;99985.41;5091266;28;20189;-42
2023/08/13 02:16:00;;;;;;;10.60;4.05;;;;;;;23.79;47.61;99996.28;5091487;28;20522;-42
2023/08/13 02:18:26;;;;;;;4.57;3.70;;;;;;;23.71;47.60;99996.88;5091494;28;20024;-42
2023/08/13 02:20:51;;;;;;;4.97;3.95;;;;;;;23.74;47.58;99999.03;5091171;28;20054;-41
2023/08/13 02:23:16;;;;;;;6.47;3.88;;;;;;;23.73;47.71;100002.03;5091156;28;20023;-43
2023/08/13 02:25:42;;;;;;;7.15;3.65;;;;;;;23.70;47.92;99997.16;5091304;28;20144;-42
2023/08/13 02:28:07;;;;;;;6.05;3.90;;;;;;;23.65;48.05;100002.66;5091146;28;20415;-42
2023/08/13 02:30:33;;;;;;;5.47;3.65;;;;;;;23.56;48.31;99992.38;5091046;28;20476;-43
2023/08/13 02:32:58;;;;;;;4.15;3.75;;;;;;;23.54;47.98;100002.72;5091144;28;20130;-43
2023/08/13 02:35:23;;;;;;;4.90;3.90;;;;;;;23.55;48.10;100004.34;5091047;28;20050;-41
2023/08/13 02:37:49;;;;;;;6.03;3.80;;;;;;;23.55;48.09;100009.78;5090701;28;20127;-43
2023/08/13 02:40:14;;;;;;;4.88;3.90;;;;;;;23.49;48.07;100010.91;5090885;28;20020;-41
2023/08/13 02:42:40;;;;;;;5.65;3.60;;;;;;;23.64;47.73;99998.31;5090691;28;20361;-41
2023/08/13 02:45:05;;;;;;;4.53;3.72;;;;;;;23.41;47.97;100004.16;5090709;28;20035;-41
2023/08/13 02:47:31;;;;;;;4.82;3.33;;;;;;;23.39;47.93;100005.56;5090767;28;20024;-41
2023/08/13 02:49:56;;;;;;;5.65;3.90;;;;;;;22.99;49.06;100004.69;5090729;28;20032;-40
2023/08/13 02:52:22;;;;;;;4.80;3.90;;;;;;;23.01;48.57;100000.59;5090747;28;20038;-42
2023/08/13 02:54:47;;;;;;;5.68;3.58;;;;;;;22.94;48.85;100005.53;5090666;28;20472;-42
2023/08/13 02:57:12;;;;;;;5.55;4.10;;;;;;;22.67;49.79;100000.47;5090583;28;20074;-42
2023/08/13 02:59:38;;;;;;;6.72;3.63;;;;;;;22.65;49.68;100005.38;5090574;28;20103;-40
2023/08/13 03:02:03;;;;;;;5.10;3.83;;;;;;;22.59;49.95;100004.56;5090684;28;20024;-43
2023/08/13 03:04:29;;;;;;;5.88;3.55;;;;;;;22.33;50.62;100012.00;5090788;28;20032;-43
2023/08/13 03:06:54;;;;;;;6.00;4.03;;;;;;;22.31;50.89;100006.00;5090605;28;20443;-41
2023/08/13 03:09:21;;;;;;;7.15;4.07;;;;;;;22.28;51.07;100003.06;5090525;28;20028;-41
2023/08/13 03:11:47;;;;;;;8.02;3.78;;;;;;;22.45;50.67;100004.38;5089805;28;20103;-43
2023/08/13 03:14:13;;;;;;;5.63;3.90;;;;;;;22.42;50.44;100013.03;5090315;28;20484;-41
2023/08/13 03:16:39;;;;;;;5.32;4.00;;;;;;;22.41;50.61;100011.44;5090188;28;20035;-40
2023/08/13 03:19:04;;;;;;;5.50;3.90;;;;;;;22.25;50.62;100012.53;5090190;28;20028;-42
2023/08/13 03:21:29;;;;;;;4.78;3.70;;;;;;;22.51;50.22;100012.50;5090498;28;20024;-41
2023/08/13 03:23:55;;;;;;;5.70;3.90;;;;;;;22.35;50.55;100011.69;5090468;28;20085;-42
2023/08/13 03:26:20;;;;;;;6.00;4.00;;;;;;;22.43;50.12;100013.88;5090109;28;20338;-41
2023/08/13 03:28:46;;;;;;;6.28;3.88;;;;;;;22.50;50.19;100011.66;5090187;28;20376;-42
2023/08/13 03:31:11;;;;;;;5.95;4.05;;;;;;;22.50;49.98;100021.69;5071908;28;20492;-43
2023/08/13 03:33:37;;;;;;;4.80;3.83;;;;;;;22.50;49.69;100013.56;5089828;28;20032;-42
2023/08/13 03:36:02;;;;;;;5.50;3.80;;;;;;;22.48;49.67;100013.84;5090706;28;20024;-41
2023/08/13 03:38:28;;;;;;;4.75;3.67;;;;;;;22.46;50.13;100013.31;5089857;28;20558;-42
2023/08/13 03:40:55;;;;;;;4.63;3.47;;;;;;;22.59;49.72;100009.19;5089997;28;20174;-42
2023/08/13 03:43:20;;;;;;;5.68;3.85;;;;;;;22.56;49.61;100010.56;5089735;28;20028;-42
2023/08/13 03:45:46;;;;;;;4.88;3.65;;;;;;;22.60;49.75;100008.94;5089970;28;20480;-42
2023/08/13 03:48:11;;;;;;;5.63;3.67;;;;;;;22.77;49.56;100013.19;5090402;28;20468;-41
2023/08/13 03:50:41;;;;;;;4.50;3.72;;;;;;;22.39;50.88;100013.59;5089984;28;20489;-41
2023/08/13 03:53:07;;;;;;;11.82;3.97;;;;;;;22.58;50.06;99999.44;5089936;28;20389;-42
2023/08/13 03:55:32;;;;;;;5.10;3.85;;;;;;;22.67;49.90;100018.66;5089854;28;20502;-42
2023/08/13 03:57:58;;;;;;;4.30;3.50;;;;;;;22.46;50.68;100010.59;5090221;28;20031;-42
2023/08/13 04:00:23;;;;;;;5.05;3.80;;;;;;;22.41;50.82;100021.47;5089926;28;20035;-42
2023/08/13 04:02:49;;;;;;;5.20;4.10;;;;;;;22.48;50.90;100027.38;5089972;28;20026;-40
2023/08/13 04:05:14;;;;;;;5.85;3.38;;;;;;;22.53;51.10;100021.97;5089965;28;20158;-41
2023/08/13 04:07:40;;;;;;;7.13;3.80;;;;;;;22.71;50.19;100017.00;5089956;28;20060;-42
2023/08/13 04:10:06;;;;;;;5.38;3.47;;;;;;;23.05;49.73;100019.06;5089813;28;20026;-42
2023/08/13 04:12:31;;;;;;;5.47;3.90;;;;;;;23.41;48.82;100019.66;5089996;28;20024;-41
2023/08/13 04:14:57;;;;;;;4.53;3.33;;;;;;;23.64;48.03;100025.47;5089972;28;20032;-41
2023/08/13 04:17:22;;;;;;;7.20;3.60;;;;;;;23.60;47.96;100022.50;5090085;28;20028;-41
2023/08/13 04:19:47;;;;;;;7.70;3.50;;;;;;;23.67;47.68;100022.19;5089744;28;20046;-41
2023/08/13 04:22:13;;;;;;;4.18;3.50;;;;;;;24.18;46.93;100022.56;5090076;28;20016;-41
2023/08/13 04:24:39;;;;;;;4.97;3.50;;;;;;;24.87;45.64;100022.34;5092946;28;20399;-42
2023/08/13 04:27:05;;;;;;;6.65;3.30;;;;;;;25.28;44.32;100026.44;5093648;28;20403;-41
2023/08/13 04:29:31;;;;;;;5.45;3.45;;;;;;;25.51;43.60;100014.69;5093247;28;20028;-42
2023/08/13 04:31:57;;;;;;;4.95;3.33;;;;;;;25.57;43.57;100026.31;5093153;28;20050;-42
2023/08/13 04:34:22;;;;;;;4.35;3.20;;;;;;;25.99;42.60;100034.63;5093356;28;20028;-42
2023/08/13 04:36:47;;;;;;;5.57;3.40;;;;;;;26.17;41.94;100041.13;5093215;28;20038;-44
2023/08/13 04:39:13;;;;;;;5.20;3.38;;;;;;;26.48;41.41;100036.72;5093151;28;20052;-43
2023/08/13 04:41:40;;;;;;;3.83;3.22;;;;;;;27.08;40.28;100030.31;5093241;28;20028;-44
2023/08/13 04:44:06;;;;;;;8.05;3.28;;;;;;;27.53;39.43;100032.34;5093308;28;20028;-43
2023/08/13 04:46:32;;;;;;;5.68;3.53;;;;;;;27.94;38.91;100028.63;5093384;28;20100;-46
2023/08/13 04:48:57;;;;;;;4.93;3.22;;;;;;;28.17;37.91;100025.84;5092908;28;20479;-45
2023/08/13 04:51:22;;;;;;;3.83;3.00;;;;;;;28.59;37.18;100035.38;5092914;28;20028;-41
2023/08/13 04:53:48;;;;;;;4.57;3.22;;;;;;;28.92;36.39;100042.38;5092701;28;20201;-45
2023/08/13 04:56:14;;;;;;;5.25;3.05;;;;;;;29.21;35.54;100031.66;5093186;28;20081;-42
2023/08/13 04:58:39;;;;;;;4.30;3.10;;;;;;;29.28;35.53;100035.84;5092794;28;20027;-43
2023/08/13 05:01:06;;;;;;;3.78;3.17;;;;;;;29.51;35.38;100041.97;5092922;28;20104;-42
2023/08/13 05:03:32;;;;;;;6.93;3.30;;;;;;;30.00;35.10;100032.41;5092769;28;20106;-44
2023/08/13 05:05:57;;;;;;;6.07;3.20;;;;;;;30.35;34.55;100039.75;5092716;28;20539;-44
2023/08/13 05:08:23;;;;;;;3.50;3.05;;;;;;;30.63;33.88;100042.03;5092591;28;20153;-43
2023/08/13 05:10:48;;;;;;;3.83;2.95;;;;;;;30.98;33.09;100039.94;5092784;28;20046;-42
2023/08/13 05:13:14;;;;;;;5.32;3.60;;;;;;;31.49;32.24;100046.19;5092697;28;20416;-44
2023/08/13 05:15:40;;;;;;;8.40;4.68;;;;;;;31.88;32.00;100046.78;5092644;28;20156;-44
2023/08/13 05:18:05;;;;;;;5.18;3.60;;;;;;;32.30;31.51;100043.09;5092579;28;20089;-44
2023/08/13 05:20:31;;;;;;;5.47;4.03;;;;;;;32.57;30.86;100051.88;5092248;28;20103;-41
2023/08/13 05:22:56;;;;;;;4.43;3.20;;;;;;;32.42;30.86;100048.59;5092226;28;20031;-43
2023/08/13 05:25:22;;;;;;;3.75;3.00;;;;;;;32.62;30.57;100052.44;5092418;28;20020;-43
2023/08/13 05:27:48;;;;;;;4.78;3.03;;;;;;;32.75;30.20;100055.19;5092026;28;20028;-41
2023/08/13 05:30:13;;;;;;;6.15;3.05;;;;;;;32.50;30.43;100047.72;5092316;28;20459;-44
2023/08/13 05:32:38;;;;;;;3.20;2.90;;;;;;;32.89;29.99;100056.44;5092064;28;20119;-42
2023/08/13 05:35:04;;;;;;;4.65;2.95;;;;;;;32.23;30.83;100048.38;5091817;28;20055;-45
2023/08/13 05:37:30;;;;;;;7.05;2.92;;;;;;;32.87;29.96;100044.16;5092132;28;20133;-42
2023/08/13 05:39:55;;;;;;;3.22;2.92;;;;;;;33.23;29.62;100050.78;5092235;28;20032;-47
2023/08/13 05:42:21;;;;;;;4.50;3.10;;;;;;;33.29;29.82;100054.88;5092231;28;20408;-44
2023/08/13 05:44:46;;;;;;;4.75;3.17;;;;;;;33.56;29.08;100047.78;5092031;28;20024;-46
2023/08/13 05:47:12;;;;;;;5.18;2.80;;;;;;;33.86;28.79;100050.19;5091653;28;20023;-44
2023/08/13 05:49:37;;;;;;;4.10;3.40;;;;;;;33.93;28.95;100052.31;5091671;28;20515;-43
2023/08/13 05:52:03;;;;;;;5.63;3.65;;;;;;;34.15;28.46;100056.47;5091489;28;20032;-44
2023/08/13 05:54:28;;;;;;;4.07;3.25;;;;;;;34.51;28.02;100057.38;5091947;28;20028;-43
2023/08/13 05:56:54;;;;;;;4.72;3.08;;;;;;;34.77;27.07;100045.78;5091723;28;20141;-45
2023/08/13 05:59:20;;;;;;;3.97;2.92;;;;;;;34.93;27.15;100048.50;5091854;28;20217;-43
2023/08/13 06:01:45;;;;;;;4.53;2.97;;;;;;;35.38;26.50;100052.66;5091385;28;20038;-44
2023/08/13 06:04:10;;;;;;;4.22;2.78;;;;;;;35.60;26.58;100048.34;5091494;28;20031;-44
2023/08/13 06:06:36;;;;;;;3.78;2.80;;;;;;;35.52;26.84;100046.59;5091520;28;20058;-43
2023/08/13 06:09:01;;;;;;;6.55;2.85;;;;;;;35.66;25.79;100052.41;5091352;28;20028;-42
2023/08/13 06:11:27;;;;;;;3.63;2.70;;;;;;;35.68;25.65;100055.66;5091395;28;20597;-42
2023/08/13 06:13:52;;;;;;;3.58;2.70;;;;;;;35.47;26.42;100050.47;5091466;28;20032;-43
2023/08/13 06:16:18;;;;;;;3.90;2.90;;;;;;;35.31;25.79;100049.75;5091349;28;20032;-43
2023/08/13 06:18:43;;;;;;;4.32;3.05;;;;;;;35.17;25.78;100051.03;5091628;28;20073;-42
2023/08/13 06:21:09;;;;;;;3.42;2.90;;;;;;;34.92;26.51;100055.19;5091256;28;20047;-42
2023/08/13 06:23:34;;;;;;;3.78;2.90;;;;;;;34.79;26.91;100051.75;5091382;28;20384;-44
2023/08/13 06:26:00;;;;;;;5.78;3.63;;;;;;;34.52;26.91;100045.97;5091404;28;20020;-44
2023/08/13 06:28:25;;;;;;;4.93;3.40;;;;;;;33.75;27.78;100052.66;5091398;28;20108;-43
2023/08/13 06:30:50;;;;;;;4.00;3.30;;;;;;;33.96;27.89;100048.88;5090947;28;20024;-44
2023/08/13 06:33:16;;;;;;;4.50;3.10;;;;;;;34.19;28.03;100054.63;5091239;28;20048;-43
2023/08/13 06:35:46;;;;;;;4.85;2.97;;;;;;;34.27;27.46;100053.63;5091308;28;20290;-43
2023/08/13 06:38:12;;;;;;;4.40;2.90;;;;;;;34.80;27.11;100050.59;5090909;28;20056;-43
2023/08/13 06:40:38;;;;;;;5.18;3.00;;;;;;;34.58;27.40;100049.28;5091053;28;20134;-44
2023/08/13 06:43:03;;;;;;;6.15;3.30;;;;;;;34.93;27.31;100054.81;5091561;28;20019;-43
2023/08/13 06:45:29;;;;;;;3.72;3.17;;;;;;;35.29;26.55;100057.59;5090600;28;20118;-47
2023/08/13 06:47:58;;;;;;;4.10;2.90;;;;;;;34.70;26.88;100048.38;5090728;28;20028;-44
2023/08/13 06:50:24;;;;;;;6.43;2.92;;;;;;;34.83;26.53;100050.66;5091050;28;20456;-42
2023/08/13 06:52:50;;;;;;;6.35;3.00;;;;;;;35.09;26.45;100048.44;5091023;28;20052;-43
2023/08/13 06:55:15;;;;;;;5.10;3.00;;;;;;;34.88;26.33;100049.59;5090799;28;20085;-44
2023/08/13 06:57:41;;;;;;;2.80;2.55;;;;;;;35.12;25.87;100045.75;5090931;28;20020;-45
2023/08/13 07:00:07;;;;;;;3.78;2.85;;;;;;;35.10;26.10;100050.84;5090710;28;20031;-42
2023/08/13 07:02:32;;;;;;;5.55;2.80;;;;;;;35.15;26.06;100050.56;5090455;28;20123;-43
2023/08/13 07:04:57;;;;;;;3.70;2.78;;;;;;;35.68;25.92;100049.31;5090779;28;20081;-41
2023/08/13 07:07:23;;;;;;;4.93;3.08;;;;;;;35.18;26.45;100047.09;5090495;28;20013;-44
2023/08/13 07:09:48;;;;;;;4.63;3.47;;;;;;;35.38;26.00;100047.91;5090513;28;20024;-43
2023/08/13 07:12:14;;;;;;;3.72;3.13;;;;;;;35.75;25.24;100049.44;5090301;28;20020;-43
2023/08/13 07:14:40;;;;;;;3.88;3.03;;;;;;;34.66;26.34;100043.53;5090315;28;20030;-43
2023/08/13 07:17:06;;;;;;;3.92;2.90;;;;;;;35.20;26.05;100039.25;5090539;28;20023;-42
2023/08/13 07:19:32;;;;;;;3.30;3.00;;;;;;;35.28;25.64;100048.50;5090135;28;20123;-44
2023/08/13 07:21:58;;;;;;;3.83;3.00;;;;;;;35.73;25.51;100049.00;5090124;28;20036;-44
2023/08/13 07:24:23;;;;;;;3.70;2.80;;;;;;;36.47;25.13;100045.16;5090296;28;20039;-43
2023/08/13 07:26:49;;;;;;;4.93;2.80;;;;;;;37.05;24.08;100042.09;5090175;28;20023;-44
2023/08/13 07:29:15;;;;;;;2.70;2.50;;;;;;;37.17;23.83;100038.31;5090245;28;20036;-41
2023/08/13 07:31:41;;;;;;;4.25;2.80;;;;;;;37.24;23.50;100037.56;5090125;28;20016;-42
2023/08/13 07:34:06;;;;;;;5.45;2.88;;;;;;;37.57;22.96;100031.22;5090228;28;20028;-43
2023/08/13 07:36:32;;;;;;;4.43;3.00;;;;;;;37.80;22.83;100041.41;5090459;28;20024;-45
2023/08/13 07:38:58;;;;;;;4.65;3.10;;;;;;;37.83;23.00;100041.44;5089856;28;20044;-43
2023/08/13 07:41:23;;;;;;;3.92;2.70;;;;;;;37.35;23.27;100035.72;5090218;28;20088;-44
2023/08/13 07:43:49;;;;;;;5.38;2.70;;;;;;;37.42;22.82;100033.06;5090068;28;20081;-43
2023/08/13 07:46:14;;;;;;;3.38;2.70;;;;;;;36.90;23.56;100030.00;5089690;28;20043;-43
2023/08/13 07:48:40;;;;;;;4.20;2.70;;;;;;;37.33;23.37;100030.56;5089978;28;20028;-42
2023/08/13 07:51:05;;;;;;;5.32;2.70;;;;;;;37.25;22.41;100028.09;5089803;28;20035;-43
2023/08/13 07:53:31;;;;;;;5.93;3.08;;;;;;;37.84;22.09;100026.38;5089876;28;20031;-43
2023/08/13 07:55:57;;;;;;;4.72;2.70;;;;;;;37.85;22.27;100025.22;5089712;28;20028;-44
2023/08/13 07:58:22;;;;;;;5.70;2.40;;;;;;;38.55;21.74;100019.84;5093088;28;20409;-42
2023/08/13 08:00:48;;;;;;;3.67;2.55;;;;;;;38.51;21.02;100025.34;5094103;28;20047;-42
2023/08/13 08:03:14;;;;;;;4.47;2.50;;;;;;;38.45;21.73;100018.56;5094016;28;20494;-44
2023/08/13 08:05:41;;;;;;;3.35;2.50;;;;;;;38.83;20.84;100019.22;5094029;28;20065;-46
2023/08/13 08:08:06;;;;;;;4.13;2.78;;;;;;;38.02;20.73;100017.41;5093953;28;20519;-43
2023/08/13 08:10:32;;;;;;;3.60;2.70;;;;;;;37.55;21.30;100008.63;5093870;28;20050;-44
2023/08/13 08:12:57;;;;;;;3.10;2.70;;;;;;;38.17;20.84;100010.03;5093697;28;20425;-44
2023/08/13 08:15:23;;;;;;;3.10;2.80;;;;;;;38.08;20.29;100018.66;5094063;28;20027;-43
2023/08/13 08:17:48;;;;;;;3.13;2.40;;;;;;;37.84;20.42;100004.16;5094151;28;20448;-45
2023/08/13 08:20:14;;;;;;;4.18;2.65;;;;;;;36.86;21.25;100006.97;5093473;28;20031;-42
2023/08/13 08:22:39;;;;;;;4.82;2.80;;;;;;;36.70;22.18;100001.59;5094025;28;20059;-45
2023/08/13 08:25:09;;;;;;;3.08;2.40;;;;;;;36.54;21.25;99998.19;5093807;28;20030;-43
2023/08/13 08:27:34;;;;;;;3.40;2.53;;;;;;;36.33;21.66;100004.19;5093205;28;20548;-43
2023/08/13 08:30:00;;;;;;;2.88;2.42;;;;;;;35.71;22.07;99999.56;5093045;28;20024;-43
2023/08/13 08:32:25;;;;;;;2.63;2.30;;;;;;;35.46;23.06;100001.03;5093346;28;20168;-45
2023/08/13 08:34:50;;;;;;;3.53;2.40;;;;;;;35.58;21.80;99998.09;5093716;28;20111;-43
2023/08/13 08:37:16;;;;;;;2.90;2.30;;;;;;;36.12;21.27;99996.28;5093119;28;20424;-43
2023/08/13 08:39:41;;;;;;;4.57;2.53;;;;;;;36.54;21.13;99998.97;5093451;28;20020;-43
2023/08/13 08:42:09;;;;;;;2.83;2.30;;;;;;;36.63;21.49;99992.34;5093338;28;20103;-44
2023/08/13 08:44:42;;;;;;;5.33;2.47;;;;;;;35.64;21.80;99996.63;5093645;28;20517;-44
2023/08/13 08:47:10;;;;;;;3.42;2.70;;;;;;;35.27;22.54;99996.31;5093091;28;20047;-42
2023/08/13 08:49:36;;;;;;;4.60;2.70;;;;;;;34.72;22.38;99980.53;5093363;28;20453;-44
2023/08/13 08:52:01;;;;;;;3.22;2.60;;;;;;;34.59;23.83;99981.78;5093195;28;20035;-45
2023/08/13 08:54:27;;;;;;;3.08;2.40;;;;;;;35.22;22.82;99989.09;5093320;28;20085;-42
2023/08/13 08:56:52;;;;;;;2.85;2.50;;;;;;;34.25;23.68;99993.25;5075092;28;20089;-44
2023/08/13 08:59:19;;;;;;;2.58;2.38;;;;;;;34.68;23.54;99987.94;5093541;28;20396;-43
2023/08/13 09:01:44;;;;;;;3.45;2.35;;;;;;;35.49;22.59;99983.69;5093295;28;20051;-42
2023/08/13 09:04:10;;;;;;;3.38;2.30;;;;;;;35.95;22.38;99975.47;5093472;28;20099;-42
2023/08/13 09:07:04;;;;;;;3.10;2.60;;;;;;;35.96;21.53;99975.06;5093272;28;20039;-44
2023/08/13 09:09:30;;;;;;;3.28;2.50;;;;;;;35.21;22.32;99968.97;5092200;28;20124;-43
2023/08/13 09:11:58;;;;;;;4.47;2.42;;;;;;;34.70;23.26;99971.00;5092823;28;20115;-42
2023/08/13 09:14:24;;;;;;;5.57;2.60;;;;;;;33.62;23.84;99966.34;5092884;28;20028;-43
2023/08/13 09:16:55;;;;;;;3.30;2.65;;;;;;;33.25;24.43;99974.03;5092403;28;20381;-44
2023/08/13 09:19:23;;;;;;;2.97;2.50;;;;;;;32.52;25.18;99964.75;5092846;28;20023;-42
2023/08/13 09:22:00;;;;;;;3.92;2.70;;;;;;;32.70;25.38;99962.56;5092749;28;20031;-43
2023/08/13 09:24:43;;;;;;;2.83;2.35;;;;;;;33.09;25.17;99965.66;5092786;28;20027;-43
2023/08/13 09:27:09;;;;;;;4.38;2.75;;;;;;;32.96;24.82;99961.34;5092805;28;20077;-44
2023/08/13 09:29:36;;;;;;;3.95;2.65;;;;;;;33.42;24.49;99950.88;5092899;28;20442;-44
2023/08/13 09:32:03;;;;;;;3.95;2.60;;;;;;;33.68;24.26;99958.66;5092366;28;20016;-48
2023/08/13 09:34:30;;;;;;;2.85;2.45;;;;;;;33.96;24.18;99958.59;5092414;28;20087;-44
2023/08/13 09:36:57;;;;;;;5.50;2.72;;;;;;;34.24;24.36;99963.25;5092313;28;20032;-44
2023/08/13 09:39:23;;;;;;;4.75;2.70;;;;;;;33.62;25.87;99951.78;5092455;28;20052;-42
2023/08/13 09:41:50;;;;;;;3.50;2.60;;;;;;;33.05;26.15;99959.25;5092225;28;20510;-42
2023/08/13 09:44:18;;;;;;;5.15;2.72;;;;;;;32.64;26.06;99963.97;5092455;28;20058;-41
2023/08/13 09:46:47;;;;;;;3.03;2.67;;;;;;;32.46;26.52;99955.94;5092421;28;20024;-44
2023/08/13 09:49:15;;;;;;;3.40;2.80;;;;;;;31.94;28.04;99962.88;5092195;28;20055;-42
2023/08/13 09:51:47;;;;;;;4.93;3.10;;;;;;;31.83;29.10;99939.69;5092092;28;20024;-44
2023/08/13 09:55:02;;;;;;;3.63;2.90;;;;;;;31.17;30.33;99963.31;5092272;28;20062;-42
2023/08/13 09:57:28;;;;;;;3.45;2.75;;;;;;;31.12;30.47;99957.22;5087123;28;20116;-41
2023/08/13 09:59:54;;;;;;;4.95;2.75;;;;;;;30.66;30.79;99959.00;5091976;28;20042;-42
2023/08/13 10:02:21;;;;;;;3.78;2.80;;;;;;;30.31;30.73;99948.19;5092002;28;20020;-42
2023/08/13 10:04:46;;;;;;;3.10;2.80;;;;;;;30.58;30.35;99936.75;5092092;28;20028;-41
2023/08/13 10:07:12;;;;;;;4.47;2.78;;;;;;;30.68;30.87;99956.72;5091839;28;20043;-41
2023/08/13 10:09:39;;;;;;;4.70;3.45;;;;;;;31.03;30.70;99960.03;5092041;28;20036;-43
2023/08/13 10:12:06;;;;;;;4.53;3.03;;;;;;;31.07;29.45;99958.25;5091794;28;20024;-41
2023/08/13 10:14:32;;;;;;;3.30;2.80;;;;;;;31.62;29.42;99955.47;5091336;28;20028;-45
2023/08/13 10:17:06;;;;;;;3.55;2.65;;;;;;;31.83;28.47;99947.94;5091445;28;20035;-44
2023/08/13 10:19:37;;;;;;;3.35;2.70;;;;;;;32.05;28.64;99944.00;5091470;28;20391;-42
2023/08/13 10:22:03;;;;;;;4.32;2.80;;;;;;;32.45;28.13;99945.25;5090241;28;20051;-42
2023/08/13 10:24:30;;;;;;;5.80;2.88;;;;;;;32.68;27.73;99948.34;5091510;28;20472;-42
2023/08/13 10:26:57;;;;;;;3.60;2.90;;;;;;;32.48;27.36;99937.09;5091450;28;20034;-45
2023/08/13 10:29:24;;;;;;;4.00;2.70;;;;;;;32.13;27.46;99934.03;5091674;28;20028;-43
2023/08/13 10:32:14;;;;;;;3.15;2.78;;;;;;;32.21;27.54;99929.53;5091281;28;20024;-44
2023/08/13 10:34:50;;;;;;;3.25;2.63;;;;;;;32.24;28.04;99926.91;5078565;28;20040;-42
2023/08/13 10:37:30;;;;;;;3.38;2.75;;;;;;;32.17;27.73;99920.38;5091343;28;20066;-43
2023/08/13 10:39:55;;;;;;;4.40;2.60;;;;;;;32.72;27.25;99921.69;5091368;28;20047;-43
2023/08/13 10:42:26;;;;;;;3.97;3.33;;;;;;;32.98;27.18;99910.25;5091156;28;20420;-43
2023/08/13 10:45:16;;;;;;;3.97;2.90;;;;;;;32.92;27.23;99900.63;5091267;28;20081;-44
2023/08/13 10:47:46;;;;;;;;;;;;;;;33.05;26.75;99904.13;5091432;28;20484;-43
2023/08/13 10:50:42;;;;;;;2.97;2.67;;;;;;;33.10;27.35;99907.47;5090924;28;19908;-42
2023/08/13 10:53:12;;;;;;;3.78;2.83;;;;;;;33.75;26.19;99905.63;5091233;28;20139;-44
2023/08/13 10:55:37;;;;;;;3.15;2.60;;;;;;;34.25;25.46;99904.09;5091275;28;20024;-44
2023/08/13 10:58:04;;;;;;;4.82;2.70;;;;;;;34.84;24.64;99894.75;5090998;28;20089;-43
2023/08/13 11:00:29;;;;;;;3.33;2.60;;;;;;;35.26;24.41;99890.41;5090731;28;20024;-42
2023/08/13 11:03:16;;;;;;;3.63;2.70;;;;;;;35.00;24.38;99902.16;5091115;28;20039;-43
2023/08/13 11:05:43;;;;;;;3.22;2.60;;;;;;;34.74;24.79;99891.75;5090650;28;20016;-43
2023/08/13 11:08:08;;;;;;;3.13;2.70;;;;;;;34.99;24.29;99893.03;5090930;28;20472;-46
2023/08/13 11:10:35;;;;;;;3.20;2.83;;;;;;;35.36;24.09;99889.03;5090585;28;20107;-44
2023/08/13 11:13:04;;;;;;;2.97;2.63;;;;;;;35.76;23.57;99883.03;5090444;28;20468;-46
2023/08/13 11:15:30;;;;;;;3.40;2.70;;;;;;;35.98;23.11;99886.13;5090806;28;20015;-43
2023/08/13 11:17:55;;;;;;;3.78;2.78;;;;;;;35.75;23.69;99875.88;5090524;28;20552;-43
2023/08/13 11:20:21;;;;;;;3.17;2.63;;;;;;;35.92;23.02;99871.78;5090588;28;20020;-45
2023/08/13 11:22:47;;;;;;;2.97;2.45;;;;;;;36.10;22.81;99861.00;5090643;28;20076;-44
2023/08/13 11:25:14;;;;;;;3.22;2.47;;;;;;;36.11;22.36;99857.03;5090588;28;20054;-46
2023/08/13 11:27:40;;;;;;;3.70;2.50;;;;;;;35.28;23.82;99862.41;5090565;28;20016;-45